Time;durP1;ratioP1;P1;durP2;ratioP2;P2;SDS_P1;SDS_P2;PMS_P1;PMS_P2;Temp;Humidity;BMP_temperature;BMP_pressure;BME280_temperature;BME280_humidity;BME280_pressure;Samples;Min_cycle;Max_cycle;Signal;HPM_P1;HPM_P2
2023/10/24 00:00:49;;;;;;;8.53;7.83;;;11.70;99.90;;;;;;4994345;28;20175;-69
2023/10/24 00:03:14;;;;;;;8.90;8.20;;;11.70;99.90;;;;;;4993760;28;20439;-70
2023/10/24 00:05:40;;;;;;;8.63;7.60;;;11.70;99.90;;;;;;4993287;28;20242;-69
2023/10/24 00:08:05;;;;;;;9.07;8.17;;;11.70;99.90;;;;;;4993430;28;20171;-69
2023/10/24 00:10:31;;;;;;;11.57;8.60;;;11.70;99.90;;;;;;4994111;28;20285;-69
2023/10/24 00:12:56;;;;;;;9.07;8.27;;;11.70;99.90;;;;;;4992301;28;20187;-69
2023/10/24 00:15:22;;;;;;;8.13;7.50;;;11.60;99.90;;;;;;4990682;28;20207;-69
2023/10/24 00:17:47;;;;;;;9.30;8.03;;;11.60;99.90;;;;;;4992984;28;20175;-69
2023/10/24 00:20:13;;;;;;;8.90;8.10;;;11.60;99.90;;;;;;4993787;28;20644;-70
2023/10/24 00:22:38;;;;;;;11.60;8.50;;;11.60;99.90;;;;;;4991258;28;20183;-69
2023/10/24 00:25:05;;;;;;;11.47;8.20;;;11.60;99.90;;;;;;4992528;28;20217;-70
2023/10/24 00:27:30;;;;;;;9.40;8.60;;;11.60;99.90;;;;;;4995318;28;20180;-70
2023/10/24 00:29:56;;;;;;;11.70;8.77;;;11.60;99.90;;;;;;4993761;28;20793;-69
2023/10/24 00:32:21;;;;;;;10.50;9.70;;;11.60;99.90;;;;;;4993195;28;20183;-69
2023/10/24 00:34:47;;;;;;;10.00;9.07;;;11.50;99.90;;;;;;4991911;28;20203;-69
2023/10/24 00:37:13;;;;;;;9.77;8.17;;;11.60;99.90;;;;;;4992574;28;20179;-70
2023/10/24 00:39:39;;;;;;;9.47;8.57;;;11.60;99.90;;;;;;4994553;28;20673;-69
2023/10/24 00:42:05;;;;;;;9.50;8.50;;;11.60;99.90;;;;;;4993289;28;20462;-69
2023/10/24 00:44:32;;;;;;;8.57;7.80;;;11.60;99.90;;;;;;4993281;28;20184;-70
2023/10/24 00:46:57;;;;;;;9.30;8.40;;;11.60;99.90;;;;;;4992781;28;20462;-70
2023/10/24 00:49:24;;;;;;;8.27;7.43;;;11.60;99.90;;;;;;4992681;28;20474;-69
2023/10/24 00:51:50;;;;;;;9.43;8.53;;;11.60;99.90;;;;;;4992539;28;20245;-70
2023/10/24 00:54:16;;;;;;;9.13;8.23;;;11.60;99.90;;;;;;4992588;28;20452;-70
2023/10/24 00:56:46;;;;;;;8.70;7.97;;;11.70;99.90;;;;;;4990929;28;20876;-70
2023/10/24 00:59:12;;;;;;;8.60;7.90;;;11.60;99.90;;;;;;4993077;28;20732;-70
2023/10/24 01:01:38;;;;;;;8.30;7.70;;;11.60;99.90;;;;;;4992306;28;20470;-69
2023/10/24 01:04:05;;;;;;;8.50;7.80;;;11.60;99.90;;;;;;4991510;28;20485;-70
2023/10/24 01:06:30;;;;;;;8.73;7.67;;;11.70;99.90;;;;;;4992295;28;20183;-70
2023/10/24 01:08:56;;;;;;;9.27;8.57;;;11.70;99.90;;;;;;4992393;28;20443;-70
2023/10/24 01:11:23;;;;;;;7.23;6.60;;;11.70;99.90;;;;;;4989139;28;20210;-70
2023/10/24 01:13:48;;;;;;;7.83;7.13;;;11.70;99.90;;;;;;4992591;28;20167;-70
2023/10/24 01:16:16;;;;;;;8.80;8.00;;;11.70;99.90;;;;;;4989700;28;20813;-70
2023/10/24 01:18:41;;;;;;;7.17;6.53;;;11.80;99.90;;;;;;4992616;28;20186;-70
2023/10/24 01:21:07;;;;;;;7.90;7.20;;;11.80;99.90;;;;;;4992316;28;20928;-70
2023/10/24 01:23:33;;;;;;;8.73;8.00;;;11.90;99.90;;;;;;4992135;28;20180;-70
2023/10/24 01:25:58;;;;;;;8.83;8.03;;;11.80;99.90;;;;;;4991840;28;20273;-70
2023/10/24 01:28:26;;;;;;;7.50;6.90;;;11.80;99.90;;;;;;4991741;28;20713;-70
2023/10/24 01:30:51;;;;;;;8.27;7.47;;;11.80;99.90;;;;;;4992612;28;20281;-70
2023/10/24 01:33:17;;;;;;;7.80;7.20;;;11.90;99.90;;;;;;4990723;28;20872;-70
2023/10/24 01:35:42;;;;;;;7.00;6.40;;;11.90;99.90;;;;;;4989786;28;20199;-70
2023/10/24 01:38:08;;;;;;;8.00;7.30;;;11.90;99.90;;;;;;4992485;28;20182;-70
2023/10/24 01:40:34;;;;;;;7.50;6.80;;;11.90;99.90;;;;;;4992382;28;20646;-70
2023/10/24 01:42:59;;;;;;;7.83;7.13;;;11.90;99.90;;;;;;4992537;28;20186;-69
2023/10/24 01:45:25;;;;;;;7.20;6.67;;;12.00;99.90;;;;;;4991302;28;20199;-70
2023/10/24 01:47:50;;;;;;;8.37;7.23;;;12.00;99.90;;;;;;4991732;28;20180;-70
2023/10/24 01:50:16;;;;;;;8.60;7.70;;;11.90;99.90;;;;;;4991584;28;20199;-70
2023/10/24 01:52:43;;;;;;;9.27;6.93;;;11.90;99.90;;;;;;4996064;28;20172;-70
2023/10/24 01:55:09;;;;;;;10.10;7.47;;;11.90;99.90;;;;;;4992159;28;20195;-70
2023/10/24 01:57:34;;;;;;;8.40;7.60;;;11.90;99.90;;;;;;4981572;28;20500;-70
2023/10/24 02:00:00;;;;;;;7.97;7.20;;;11.90;99.90;;;;;;4991892;28;20183;-70
2023/10/24 02:02:26;;;;;;;7.57;6.90;;;11.90;99.90;;;;;;4991721;28;20183;-70
2023/10/24 02:04:52;;;;;;;8.00;7.30;;;11.90;99.90;;;;;;4991912;28;20218;-70
2023/10/24 02:07:19;;;;;;;8.40;6.80;;;11.80;99.90;;;;;;4991262;28;20442;-70
2023/10/24 02:09:45;;;;;;;8.37;7.57;;;11.80;99.90;;;;;;4991467;28;20209;-70
2023/10/24 02:12:11;;;;;;;8.73;7.83;;;11.80;99.90;;;;;;4992278;28;20472;-70
2023/10/24 02:14:37;;;;;;;8.23;7.43;;;11.70;99.90;;;;;;4991826;28;20197;-70
2023/10/24 02:17:02;;;;;;;7.87;7.20;;;11.70;99.90;;;;;;4990230;28;20171;-70
2023/10/24 02:19:28;;;;;;;8.37;7.57;;;11.70;99.90;;;;;;4990728;28;20423;-70
2023/10/24 02:21:53;;;;;;;7.83;7.00;;;11.70;99.90;;;;;;4992334;28;20645;-70
2023/10/24 02:24:19;;;;;;;7.83;7.07;;;11.70;99.90;;;;;;4991857;28;20203;-70
2023/10/24 02:26:44;;;;;;;8.00;7.40;;;11.70;99.90;;;;;;4990702;28;20192;-70
2023/10/24 02:29:10;;;;;;;8.03;7.30;;;11.70;99.90;;;;;;4992105;28;20195;-70
2023/10/24 02:31:35;;;;;;;7.50;6.90;;;11.70;99.90;;;;;;4991807;28;20206;-70
2023/10/24 02:34:01;;;;;;;8.53;7.43;;;11.70;99.90;;;;;;4991982;28;20198;-70
2023/10/24 02:36:26;;;;;;;7.77;6.97;;;11.70;99.90;;;;;;4989585;28;20203;-70
2023/10/24 02:38:52;;;;;;;7.37;6.67;;;11.70;99.90;;;;;;4991333;28;20607;-70
2023/10/24 02:41:17;;;;;;;8.17;7.50;;;11.70;99.90;;;;;;4994323;28;20526;-70
2023/10/24 02:43:43;;;;;;;8.87;8.00;;;11.60;99.90;;;;;;4995041;28;20171;-70
2023/10/24 02:46:08;;;;;;;9.27;8.37;;;11.60;99.90;;;;;;4995634;28;20283;-70
2023/10/24 02:48:34;;;;;;;8.13;7.30;;;11.60;99.90;;;;;;4994056;28;20238;-70
2023/10/24 02:51:00;;;;;;;7.97;7.17;;;11.60;99.90;;;;;;4995275;28;20187;-69
2023/10/24 02:53:25;;;;;;;8.03;7.37;;;11.50;99.90;;;;;;4994938;28;20637;-70
2023/10/24 02:55:51;;;;;;;9.20;8.07;;;11.60;99.90;;;;;;4995462;28;20198;-70
2023/10/24 02:58:18;;;;;;;8.70;7.90;;;11.50;99.90;;;;;;4994115;28;20188;-70
2023/10/24 03:00:45;;;;;;;17.77;9.40;;;11.50;99.90;;;;;;4994239;28;20951;-69
2023/10/24 03:03:11;;;;;;;7.87;7.17;;;11.60;99.90;;;;;;4994470;28;20441;-70
2023/10/24 03:05:37;;;;;;;7.90;7.03;;;11.50;99.90;;;;;;4993939;28;20584;-70
2023/10/24 03:08:03;;;;;;;8.47;6.40;;;11.50;99.90;;;;;;4993809;28;20524;-70
2023/10/24 03:10:29;;;;;;;9.00;7.20;;;11.60;99.90;;;;;;4994509;28;20308;-70
2023/10/24 03:12:55;;;;;;;7.20;6.37;;;11.60;99.90;;;;;;4994236;28;20987;-70
2023/10/24 03:15:21;;;;;;;7.03;6.33;;;11.60;99.90;;;;;;4995087;28;20246;-70
2023/10/24 03:17:47;;;;;;;6.03;5.50;;;11.60;99.90;;;;;;4992580;28;20479;-70
2023/10/24 03:20:13;;;;;;;6.30;5.80;;;11.70;99.90;;;;;;4994896;28;20168;-70
2023/10/24 03:22:39;;;;;;;6.60;5.93;;;11.60;99.90;;;;;;4994126;28;20202;-69
2023/10/24 03:25:05;;;;;;;11.27;5.77;;;11.70;99.90;;;;;;4994237;28;20477;-71
2023/10/24 03:27:31;;;;;;;7.30;5.50;;;11.80;99.90;;;;;;4993857;28;20445;-70
2023/10/24 03:29:58;;;;;;;5.53;4.93;;;11.80;99.90;;;;;;4994723;28;20454;-70
2023/10/24 03:32:23;;;;;;;6.53;5.10;;;11.90;99.90;;;;;;4994781;28;20176;-70
2023/10/24 03:34:49;;;;;;;8.27;5.03;;;11.90;99.90;;;;;;4994315;28;20453;-70
2023/10/24 03:37:17;;;;;;;7.40;5.40;;;12.00;99.90;;;;;;4992238;28;20175;-70
2023/10/24 03:39:43;;;;;;;6.50;6.00;;;12.00;99.90;;;;;;4994187;28;20704;-70
2023/10/24 03:42:13;;;;;;;7.80;6.20;;;12.00;99.90;;;;;;4994792;28;20502;-70
2023/10/24 03:44:39;;;;;;;6.80;6.10;;;12.00;99.90;;;;;;4992413;28;20282;-70
2023/10/24 03:47:05;;;;;;;6.17;5.50;;;11.90;99.90;;;;;;4993950;28;20434;-70
2023/10/24 03:49:30;;;;;;;7.53;6.10;;;11.80;99.90;;;;;;4993849;28;20449;-70
2023/10/24 03:51:56;;;;;;;7.67;5.60;;;11.80;99.90;;;;;;4994065;28;20207;-70
2023/10/24 03:54:21;;;;;;;6.70;5.20;;;11.80;99.90;;;;;;4994033;28;20611;-70
2023/10/24 03:56:47;;;;;;;5.17;4.67;;;11.80;99.90;;;;;;4993175;28;20549;-70
2023/10/24 03:59:12;;;;;;;5.27;4.80;;;11.80;99.90;;;;;;4992528;28;20525;-70
2023/10/24 04:01:38;;;;;;;7.13;5.90;;;11.90;99.90;;;;;;4993807;28;20266;-70
2023/10/24 04:04:04;;;;;;;5.63;5.17;;;12.00;99.90;;;;;;4992908;28;20199;-70
2023/10/24 04:06:30;;;;;;;5.70;4.57;;;11.90;99.90;;;;;;4993731;28;20433;-70
2023/10/24 04:09:00;;;;;;;5.77;5.27;;;11.90;99.90;;;;;;4993325;28;20311;-70
2023/10/24 04:11:25;;;;;;;6.13;5.63;;;11.90;99.90;;;;;;4994038;28;20249;-70
2023/10/24 04:13:51;;;;;;;7.67;6.20;;;11.80;99.90;;;;;;4993552;28;20506;-69
2023/10/24 04:16:16;;;;;;;9.27;5.77;;;11.80;99.90;;;;;;4992343;28;20561;-70
2023/10/24 04:18:42;;;;;;;13.03;6.47;;;11.70;99.90;;;;;;4990977;28;20183;-71
2023/10/24 04:21:08;;;;;;;7.93;6.70;;;11.70;99.90;;;;;;4992423;28;20606;-70
2023/10/24 04:23:34;;;;;;;7.23;6.53;;;11.70;99.90;;;;;;4992689;28;20473;-69
2023/10/24 04:26:00;;;;;;;6.50;6.00;;;11.70;99.90;;;;;;4993308;28;20257;-69
2023/10/24 04:28:25;;;;;;;6.50;6.00;;;11.70;99.90;;;;;;4991191;28;20226;-69
2023/10/24 04:30:52;;;;;;;8.83;7.37;;;11.70;99.90;;;;;;4992090;28;20968;-70
2023/10/24 04:33:17;;;;;;;7.80;7.00;;;11.80;99.90;;;;;;4992290;28;20180;-70
2023/10/24 04:35:47;;;;;;;9.00;7.23;;;11.70;99.90;;;;;;4989071;28;20795;-71
2023/10/24 04:38:15;;;;;;;8.70;7.23;;;11.70;99.90;;;;;;4990347;28;20218;-70
2023/10/24 04:40:41;;;;;;;9.60;8.07;;;11.70;99.90;;;;;;4990150;28;20804;-70
2023/10/24 04:43:07;;;;;;;8.23;7.53;;;11.70;99.90;;;;;;4993053;28;20586;-69
2023/10/24 04:45:33;;;;;;;8.67;7.87;;;11.70;99.90;;;;;;4992795;28;20307;-69
2023/10/24 04:47:59;;;;;;;7.97;7.30;;;11.60;99.90;;;;;;4991866;28;20440;-72
2023/10/24 04:50:25;;;;;;;8.50;7.70;;;11.70;99.90;;;;;;4991711;28;20466;-71
2023/10/24 04:52:52;;;;;;;8.10;7.33;;;11.70;99.90;;;;;;4992572;28;20497;-71
2023/10/24 04:55:17;;;;;;;7.20;6.60;;;11.80;99.90;;;;;;4992064;28;20187;-70
2023/10/24 04:57:43;;;;;;;7.33;6.50;;;11.70;99.90;;;;;;4992379;28;20443;-69
2023/10/24 05:00:11;;;;;;;8.17;7.37;;;11.70;99.90;;;;;;4990293;28;20202;-69
2023/10/24 05:02:38;;;;;;;7.93;7.13;;;11.70;99.90;;;;;;4988672;28;20230;-69
2023/10/24 05:05:04;;;;;;;8.03;7.33;;;11.70;99.90;;;;;;4992435;28;20951;-70
2023/10/24 05:07:30;;;;;;;9.80;7.20;;;11.70;99.90;;;;;;4992613;28;20430;-69
2023/10/24 05:09:55;;;;;;;8.53;7.63;;;11.80;99.90;;;;;;4989921;28;21528;-69
2023/10/24 05:12:21;;;;;;;7.33;6.33;;;11.90;99.90;;;;;;4989302;28;20650;-70
2023/10/24 05:14:46;;;;;;;9.40;7.20;;;11.90;99.90;;;;;;4992165;28;20259;-70
2023/10/24 05:17:13;;;;;;;9.70;6.97;;;11.80;99.90;;;;;;4991916;28;20183;-69
2023/10/24 05:19:39;;;;;;;6.67;6.00;;;11.80;99.90;;;;;;4988587;28;20179;-69
2023/10/24 05:22:04;;;;;;;7.90;7.17;;;11.80;99.90;;;;;;4992185;28;20446;-70
2023/10/24 05:24:30;;;;;;;8.37;7.67;;;11.80;99.90;;;;;;5015287;23;20199;-72
2023/10/24 05:26:55;;;;;;;9.60;8.67;;;11.80;99.90;;;;;;4991613;28;20269;-72
2023/10/24 05:29:21;;;;;;;6.67;5.97;;;11.80;99.90;;;;;;4992423;28;20547;-73
2023/10/24 05:31:46;;;;;;;6.83;6.17;;;11.80;99.90;;;;;;4996690;28;20255;-74
2023/10/24 05:34:12;;;;;;;7.90;6.97;;;11.80;99.90;;;;;;5000068;28;20181;-72
2023/10/24 05:36:37;;;;;;;7.13;6.53;;;11.70;99.90;;;;;;4999973;28;20202;-72
2023/10/24 05:39:03;;;;;;;7.43;6.73;;;11.80;99.90;;;;;;4998497;28;20234;-72
2023/10/24 05:41:29;;;;;;;8.23;7.53;;;11.80;99.90;;;;;;4997216;28;20223;-73
2023/10/24 05:43:55;;;;;;;8.50;7.70;;;11.90;99.90;;;;;;4999825;28;20687;-73
2023/10/24 05:46:21;;;;;;;8.40;7.60;;;11.80;99.90;;;;;;4997120;28;20199;-72
2023/10/24 05:48:46;;;;;;;7.23;6.47;;;11.80;99.90;;;;;;4992415;28;20438;-72
2023/10/24 05:51:21;;;;;;;7.53;6.93;;;11.80;99.90;;;;;;4995424;28;20200;-72
2023/10/24 05:53:47;;;;;;;6.53;6.03;;;11.80;99.90;;;;;;5000514;28;20648;-72
2023/10/24 05:56:13;;;;;;;7.57;6.67;;;11.80;99.90;;;;;;4999445;28;20493;-72
2023/10/24 05:58:38;;;;;;;10.23;7.10;;;11.80;99.90;;;;;;4994153;28;20179;-73
2023/10/24 06:01:04;;;;;;;7.70;7.00;;;11.80;99.90;;;;;;4999534;28;20210;-72
2023/10/24 06:03:29;;;;;;;7.50;6.67;;;11.80;99.90;;;;;;4994746;28;20246;-72
2023/10/24 06:05:55;;;;;;;9.00;8.10;;;11.80;99.90;;;;;;5003801;28;20622;-71
2023/10/24 06:08:20;;;;;;;8.80;8.00;;;11.80;99.90;;;;;;5012068;28;20213;-72
2023/10/24 06:10:57;;;;;;;68.03;34.07;;;11.80;99.90;;;;;;5007370;28;20234;-72
2023/10/24 06:13:23;;;;;;;10.83;9.63;;;11.70;99.90;;;;;;5000922;28;20253;-72
2023/10/24 06:15:49;;;;;;;12.37;8.80;;;11.80;99.90;;;;;;5007917;28;20529;-72
2023/10/24 06:18:14;;;;;;;8.57;7.77;;;11.70;99.90;;;;;;5015818;28;20175;-71
2023/10/24 06:20:40;;;;;;;8.57;7.80;;;11.80;99.90;;;;;;5004980;28;20187;-72
2023/10/24 06:23:07;;;;;;;8.90;7.83;;;11.70;99.90;;;;;;5003677;28;20215;-71
2023/10/24 06:25:39;;;;;;;9.40;8.50;;;11.70;99.90;;;;;;5001015;28;20734;-72
2023/10/24 06:28:05;;;;;;;11.17;9.73;;;11.70;99.90;;;;;;4997967;28;20445;-71
2023/10/24 06:30:32;;;;;;;11.07;8.67;;;11.70;99.90;;;;;;4996838;28;20471;-72
2023/10/24 06:32:57;;;;;;;11.73;9.23;;;11.70;99.90;;;;;;4995457;28;20435;-71
2023/10/24 06:35:23;;;;;;;10.07;9.07;;;11.80;99.90;;;;;;5012086;28;20523;-71
2023/10/24 06:37:48;;;;;;;11.20;10.27;;;11.80;99.90;;;;;;4995487;28;20195;-72
2023/10/24 06:40:14;;;;;;;9.90;8.90;;;11.80;99.90;;;;;;4998873;28;20578;-72
2023/10/24 06:42:39;;;;;;;12.30;11.13;;;11.80;99.90;;;;;;4999581;28;20193;-71
2023/10/24 06:45:06;;;;;;;10.53;9.43;;;11.80;99.90;;;;;;5000253;28;20275;-71
2023/10/24 06:47:32;;;;;;;13.13;8.80;;;11.90;99.90;;;;;;4994221;28;20661;-72
2023/10/24 06:49:58;;;;;;;12.03;9.20;;;12.00;99.90;;;;;;5000815;28;20469;-73
2023/10/24 06:52:23;;;;;;;10.60;9.60;;;12.00;99.90;;;;;;5013220;28;20170;-73
2023/10/24 06:54:49;;;;;;;11.63;7.80;;;12.10;99.90;;;;;;5007873;28;20214;-74
2023/10/24 06:57:14;;;;;;;10.77;9.80;;;12.10;99.90;;;;;;5002336;28;20171;-73
2023/10/24 06:59:40;;;;;;;9.80;8.90;;;12.10;99.90;;;;;;5000930;28;20188;-73
2023/10/24 07:02:05;;;;;;;9.40;8.30;;;12.10;99.90;;;;;;4997498;28;20234;-74
2023/10/24 07:04:31;;;;;;;12.90;11.27;;;12.10;99.90;;;;;;5006443;28;20652;-74
2023/10/24 07:06:57;;;;;;;10.10;9.10;;;12.10;99.90;;;;;;4992507;28;20178;-74
2023/10/24 07:09:22;;;;;;;8.83;8.00;;;12.10;99.90;;;;;;5005133;28;20179;-72
2023/10/24 07:11:48;;;;;;;9.90;8.93;;;12.10;99.90;;;;;;5001090;28;20952;-72
2023/10/24 07:14:13;;;;;;;11.10;9.30;;;12.10;99.90;;;;;;5006443;28;20175;-71
2023/10/24 07:16:39;;;;;;;12.37;10.90;;;12.10;99.90;;;;;;5011670;28;20187;-72
2023/10/24 07:19:04;;;;;;;11.90;9.10;;;12.10;99.90;;;;;;4994892;28;20172;-73
2023/10/24 07:21:30;;;;;;;14.10;8.07;;;12.20;99.90;;;;;;4998033;28;20187;-72
2023/10/24 07:23:56;;;;;;;9.90;7.93;;;12.20;99.90;;;;;;4999083;28;20263;-71
2023/10/24 07:26:22;;;;;;;9.80;8.80;;;12.20;99.90;;;;;;5002564;28;20219;-71
2023/10/24 07:28:47;;;;;;;10.60;8.70;;;12.30;99.90;;;;;;4994572;28;20854;-72
2023/10/24 07:31:13;;;;;;;10.93;9.40;;;12.30;99.90;;;;;;4994719;28;20203;-71
2023/10/24 07:33:38;;;;;;;10.60;9.60;;;12.40;99.90;;;;;;5001626;28;20257;-72
2023/10/24 07:36:08;;;;;;;9.47;8.57;;;12.30;99.90;;;;;;5010951;28;20276;-71
2023/10/24 07:38:34;;;;;;;9.77;8.77;;;12.40;99.90;;;;;;4998052;28;20180;-72
2023/10/24 07:41:01;;;;;;;9.97;8.97;;;12.40;99.90;;;;;;4993829;28;20848;-72
2023/10/24 07:43:27;;;;;;;9.50;8.17;;;12.40;99.90;;;;;;5001396;28;20460;-73
2023/10/24 07:45:53;;;;;;;8.80;8.10;;;12.50;99.90;;;;;;5007900;28;20460;-71
2023/10/24 07:48:20;;;;;;;9.10;8.20;;;12.50;99.90;;;;;;5002720;28;20966;-72
2023/10/24 07:50:57;;;;;;;16.00;9.00;;;12.60;99.90;;;;;;4998442;28;20500;-72
2023/10/24 07:53:23;;;;;;;11.83;9.87;;;12.60;99.90;;;;;;5007263;28;20515;-71
2023/10/24 07:55:49;;;;;;;10.80;9.70;;;12.50;99.90;;;;;;4996371;28;20963;-70
2023/10/24 07:58:18;;;;;;;10.80;9.90;;;12.40;99.90;;;;;;4994522;28;20411;-70
2023/10/24 08:00:48;;;;;;;12.83;11.73;;;12.50;99.90;;;;;;4993543;28;20429;-72
2023/10/24 08:03:15;;;;;;;13.10;11.10;;;12.50;99.90;;;;;;4994498;28;20470;-72
2023/10/24 08:05:41;;;;;;;11.40;9.97;;;12.50;99.90;;;;;;5009124;28;20461;-71
2023/10/24 08:08:07;;;;;;;11.93;9.77;;;12.40;99.90;;;;;;4996197;28;20418;-71
2023/10/24 08:10:33;;;;;;;10.47;9.47;;;12.30;99.90;;;;;;5013767;28;20544;-70
2023/10/24 08:13:00;;;;;;;15.80;9.80;;;12.30;99.90;;;;;;4994049;28;20176;-72
2023/10/24 08:15:28;;;;;;;10.70;9.70;;;12.30;99.90;;;;;;5003491;28;20808;-72
2023/10/24 08:17:54;;;;;;;14.60;10.07;;;12.30;99.90;;;;;;5004285;28;20501;-71
2023/10/24 08:20:20;;;;;;;10.93;9.83;;;12.30;99.90;;;;;;4993362;28;20513;-72
2023/10/24 08:22:46;;;;;;;16.00;8.47;;;12.20;99.90;;;;;;5002373;28;20187;-71
2023/10/24 08:25:12;;;;;;;12.80;11.60;;;12.30;99.90;;;;;;4999863;28;20864;-73
2023/10/24 08:27:38;;;;;;;12.03;10.73;;;12.30;99.90;;;;;;5004802;28;20598;-74
2023/10/24 08:30:04;;;;;;;11.30;10.20;;;12.40;99.90;;;;;;5013081;28;20452;-72
2023/10/24 08:32:30;;;;;;;9.93;9.17;;;12.40;99.90;;;;;;5012158;28;20273;-71
2023/10/24 08:34:56;;;;;;;11.17;9.90;;;12.30;99.90;;;;;;5000182;28;20553;-71
2023/10/24 08:37:22;;;;;;;10.63;8.67;;;12.40;99.90;;;;;;5005575;28;20186;-72
2023/10/24 08:39:48;;;;;;;8.70;7.80;;;12.40;99.90;;;;;;5000693;28;20197;-73
2023/10/24 08:42:15;;;;;;;10.07;9.03;;;12.30;99.90;;;;;;4997453;28;20958;-71
2023/10/24 08:44:41;;;;;;;11.23;10.30;;;12.30;99.90;;;;;;4994202;28;20466;-72
2023/10/24 08:47:08;;;;;;;13.20;11.10;;;12.40;99.90;;;;;;5001913;28;20934;-72
2023/10/24 08:49:36;;;;;;;14.00;10.53;;;12.40;99.90;;;;;;4995250;28;20449;-71
2023/10/24 08:52:03;;;;;;;10.63;9.63;;;12.50;99.90;;;;;;5002221;28;20490;-74
2023/10/24 08:54:29;;;;;;;11.00;9.87;;;12.50;99.90;;;;;;5000653;28;20879;-73
2023/10/24 08:56:55;;;;;;;10.63;8.77;;;12.60;99.90;;;;;;5003595;28;20441;-73
2023/10/24 08:59:21;;;;;;;8.97;8.17;;;12.60;99.90;;;;;;4998495;28;20445;-75
2023/10/24 09:01:48;;;;;;;10.73;8.30;;;12.70;99.90;;;;;;4991380;28;20189;-76
2023/10/24 09:04:15;;;;;;;9.43;8.63;;;12.70;99.90;;;;;;4995888;28;20183;-71
2023/10/24 09:06:40;;;;;;;10.20;9.17;;;12.70;99.90;;;;;;5002517;28;20552;-72
2023/10/24 09:09:06;;;;;;;12.90;9.83;;;12.70;99.90;;;;;;4997010;28;20638;-72
2023/10/24 09:11:53;;;;;;;8.77;7.87;;;12.70;99.90;;;;;;5005529;28;20198;-72
2023/10/24 09:14:18;;;;;;;9.07;7.40;;;12.80;99.90;;;;;;4998799;28;20218;-73
2023/10/24 09:16:44;;;;;;;9.90;8.40;;;12.80;99.90;;;;;;4999547;28;20442;-72
2023/10/24 09:19:12;;;;;;;15.00;11.00;;;12.80;99.90;;;;;;4999005;28;20179;-72
2023/10/24 09:21:38;;;;;;;13.60;12.17;;;12.80;99.90;;;;;;5002927;28;20634;-72
2023/10/24 09:24:12;;;;;;;11.47;10.33;;;12.80;99.90;;;;;;4990284;28;20525;-72
2023/10/24 09:26:38;;;;;;;11.20;9.57;;;12.80;99.90;;;;;;5003125;28;20210;-72
2023/10/24 09:29:07;;;;;;;11.63;10.77;;;12.80;99.90;;;;;;5003545;28;20919;-73
2023/10/24 09:31:33;;;;;;;13.47;12.00;;;12.90;99.90;;;;;;4997916;28;20473;-75
2023/10/24 09:33:59;;;;;;;13.07;11.87;;;12.90;99.90;;;;;;4997972;28;20955;-70
2023/10/24 09:36:27;;;;;;;13.60;12.30;;;13.00;99.90;;;;;;5015617;28;20501;-74
2023/10/24 09:38:54;;;;;;;13.43;12.00;;;13.00;99.90;;;;;;5003126;28;20183;-73
2023/10/24 09:41:21;;;;;;;14.60;11.20;;;13.10;99.90;;;;;;5002641;28;20453;-71
2023/10/24 09:43:51;;;;;;;10.93;9.83;;;13.00;99.90;;;;;;4992392;28;20443;-71
2023/10/24 09:46:22;;;;;;;10.20;9.30;;;13.10;99.90;;;;;;4994174;28;20454;-74
2023/10/24 09:48:50;;;;;;;10.43;9.13;;;13.10;99.90;;;;;;4994450;28;20450;-73
2023/10/24 09:51:19;;;;;;;9.67;8.67;;;13.20;99.90;;;;;;4991881;28;20462;-73
2023/10/24 09:53:46;;;;;;;10.30;9.33;;;13.10;99.90;;;;;;4993501;28;20783;-73
2023/10/24 09:56:13;;;;;;;9.27;8.47;;;13.10;99.90;;;;;;4991587;28;20508;-73
2023/10/24 09:58:41;;;;;;;7.87;7.17;;;13.10;99.90;;;;;;4990520;28;21002;-72
2023/10/24 10:01:09;;;;;;;15.13;11.20;;;13.10;99.90;;;;;;5001681;28;20927;-70
2023/10/24 10:03:35;;;;;;;10.77;8.07;;;13.00;99.90;;;;;;4994647;28;21383;-69
2023/10/24 10:06:04;;;;;;;11.73;9.33;;;13.10;99.90;;;;;;4983253;28;20470;-69
2023/10/24 10:08:39;;;;;;;15.67;11.97;;;13.00;99.90;;;;;;4992072;28;20455;-69
2023/10/24 10:11:05;;;;;;;12.33;10.20;;;13.20;99.90;;;;;;4990605;28;20473;-69
2023/10/24 10:13:42;;;;;;;12.33;9.70;;;13.40;99.90;;;;;;4998024;28;20450;-68
2023/10/24 10:16:26;;;;;;;12.53;9.37;;;13.40;99.90;;;;;;4995221;28;20466;-69
2023/10/24 10:19:19;;;;;;;10.27;9.30;;;13.40;99.90;;;;;;4990579;28;20443;-72
2023/10/24 10:21:47;;;;;;;8.63;7.83;;;13.40;99.90;;;;;;4991903;28;21063;-74
2023/10/24 10:24:55;;;;;;;11.23;9.70;;;13.30;99.90;;;;;;4989232;28;20537;-74
2023/10/24 10:27:47;;;;;;;11.20;10.00;;;13.30;99.90;;;;;;4976062;28;20489;-74
2023/10/24 10:30:18;;;;;;;11.70;10.60;;;13.30;99.90;;;;;;4998811;28;20917;-73
2023/10/24 10:33:14;;;;;;;10.20;9.07;;;13.40;99.90;;;;;;4990047;28;20871;-74
2023/10/24 10:36:08;;;;;;;10.60;8.33;;;13.50;99.90;;;;;;4988671;28;20449;-74
2023/10/24 10:38:38;;;;;;;9.73;8.83;;;13.50;99.90;;;;;;4996714;28;20986;-71
2023/10/24 10:41:21;;;;;;;11.77;8.60;;;13.40;99.90;;;;;;4995898;28;20449;-73
2023/10/24 10:43:47;;;;;;;9.00;8.10;;;13.40;99.90;;;;;;4994100;28;20444;-74
2023/10/24 10:46:18;;;;;;;8.90;8.07;;;13.40;99.90;;;;;;4993826;28;20458;-71
2023/10/24 10:48:44;;;;;;;9.30;8.50;;;13.60;99.90;;;;;;4993212;28;20465;-70
2023/10/24 10:51:13;;;;;;;8.47;6.63;;;13.70;99.90;;;;;;4999528;28;20500;-72
2023/10/24 10:53:52;;;;;;;8.73;7.80;;;13.70;99.90;;;;;;4997599;28;20207;-72
2023/10/24 10:56:30;;;;;;;7.93;7.03;;;13.90;99.90;;;;;;4997382;28;20467;-72
2023/10/24 10:59:08;;;;;;;8.10;6.40;;;13.90;99.90;;;;;;4998637;28;20441;-71
2023/10/24 11:01:51;;;;;;;7.20;6.20;;;13.80;99.90;;;;;;4994046;28;21004;-71
2023/10/24 11:04:16;;;;;;;8.53;6.00;;;13.60;99.90;;;;;;5001683;28;20532;-73
2023/10/24 11:06:58;;;;;;;7.83;6.30;;;13.60;99.90;;;;;;4998214;28;20453;-71
2023/10/24 11:09:32;;;;;;;6.17;5.77;;;13.50;99.90;;;;;;4998054;28;20449;-71
2023/10/24 11:12:26;;;;;;;5.03;4.60;;;13.50;99.90;;;;;;4999701;28;20474;-72
2023/10/24 11:15:11;;;;;;;9.47;5.97;;;13.50;99.90;;;;;;4998898;28;20458;-71
2023/10/24 11:17:37;;;;;;;9.10;5.80;;;13.40;99.90;;;;;;5000846;28;20804;-71
2023/10/24 11:20:08;;;;;;;6.10;5.60;;;13.20;99.90;;;;;;5002035;28;20447;-71
2023/10/24 11:22:34;;;;;;;5.93;5.33;;;13.30;99.90;;;;;;5002682;28;20191;-71
2023/10/24 11:25:00;;;;;;;6.00;5.20;;;13.20;99.90;;;;;;5029343;22;20562;-69
2023/10/24 11:27:26;;;;;;;7.17;4.40;;;13.20;99.90;;;;;;5003439;28;20451;-69
2023/10/24 11:29:52;;;;;;;6.50;4.60;;;13.20;99.90;;;;;;5009017;28;20279;-69
2023/10/24 11:32:19;;;;;;;5.17;4.77;;;13.20;99.90;;;;;;5006495;28;20567;-69
2023/10/24 11:34:46;;;;;;;6.40;5.80;;;13.20;99.90;;;;;;5007567;28;20434;-69
2023/10/24 11:37:12;;;;;;;5.47;4.67;;;13.10;99.90;;;;;;4996114;28;20445;-69
2023/10/24 11:39:41;;;;;;;5.63;4.53;;;13.10;99.90;;;;;;4996972;28;20430;-69
2023/10/24 11:42:06;;;;;;;5.60;5.20;;;13.00;99.90;;;;;;5002413;28;20278;-68
2023/10/24 11:44:32;;;;;;;6.30;5.30;;;13.00;99.90;;;;;;5003034;28;20517;-69
2023/10/24 11:46:58;;;;;;;7.17;5.23;;;13.00;99.90;;;;;;5002518;28;20241;-69
2023/10/24 11:49:36;;;;;;;5.63;5.23;;;12.90;99.90;;;;;;5005281;28;20193;-69
2023/10/24 11:52:01;;;;;;;4.70;4.30;;;12.90;99.90;;;;;;5000594;28;20742;-69
2023/10/24 11:54:27;;;;;;;6.67;4.57;;;12.90;99.90;;;;;;5017130;28;20443;-69
2023/10/24 11:56:56;;;;;;;5.20;4.20;;;12.90;99.90;;;;;;5003633;28;20480;-69
2023/10/24 11:59:22;;;;;;;4.77;4.37;;;12.90;99.90;;;;;;5001276;28;20198;-69
2023/10/24 12:01:47;;;;;;;5.60;5.03;;;12.90;99.90;;;;;;4997977;28;20868;-69
2023/10/24 12:04:13;;;;;;;10.63;4.90;;;13.00;99.90;;;;;;5000500;28;20206;-69
2023/10/24 12:06:39;;;;;;;5.93;5.10;;;13.00;99.90;;;;;;4983626;28;20296;-69
2023/10/24 12:09:06;;;;;;;6.00;5.37;;;13.00;99.90;;;;;;4999413;28;20238;-69
2023/10/24 12:11:35;;;;;;;6.40;5.43;;;13.00;99.90;;;;;;4999085;28;20466;-69
2023/10/24 12:14:02;;;;;;;6.97;6.30;;;13.10;99.90;;;;;;4997187;28;20844;-69
2023/10/24 12:16:31;;;;;;;6.73;5.20;;;13.10;99.90;;;;;;4999706;28;20509;-69
2023/10/24 12:18:57;;;;;;;5.80;5.20;;;13.20;99.90;;;;;;4996321;28;20775;-69
2023/10/24 12:21:23;;;;;;;6.07;5.47;;;13.20;99.90;;;;;;5000150;28;21074;-70
2023/10/24 12:23:49;;;;;;;5.13;4.40;;;13.30;99.90;;;;;;4989383;28;20186;-69
2023/10/24 12:26:14;;;;;;;4.23;3.90;;;13.20;99.90;;;;;;4990763;28;20589;-69
2023/10/24 12:28:43;;;;;;;6.00;5.40;;;13.20;99.90;;;;;;4992969;28;20464;-69
2023/10/24 12:31:09;;;;;;;5.10;4.60;;;13.10;99.90;;;;;;4990589;28;20225;-69
2023/10/24 12:33:35;;;;;;;6.93;5.10;;;13.10;99.90;;;;;;4996596;28;20439;-69
2023/10/24 12:36:01;;;;;;;4.93;4.43;;;13.10;99.90;;;;;;4990998;28;20513;-69
2023/10/24 12:38:27;;;;;;;6.37;4.90;;;13.10;99.90;;;;;;4980638;28;20176;-69
2023/10/24 12:40:52;;;;;;;5.67;5.10;;;13.00;99.90;;;;;;4994572;28;20688;-69
2023/10/24 12:43:18;;;;;;;5.70;5.20;;;13.00;99.90;;;;;;5002861;28;20474;-70